Time;durP1;ratioP1;P1;durP2;ratioP2;P2;SDS_P1;SDS_P2;PMS_P1;PMS_P2;Temp;Humidity;BMP_temperature;BMP_pressure;BME280_temperature;BME280_humidity;BME280_pressure;Samples;Min_cycle;Max_cycle;Signal;HPM_P1;HPM_P2
2021/04/27 00:02:18;;;;;;;5.70;3.30;;;8.20;39.10;;;;;;4943144;29;20174;-79
2021/04/27 00:04:44;;;;;;;4.20;2.70;;;8.10;39.00;;;;;;4940304;29;20493;-79
2021/04/27 00:07:10;;;;;;;6.07;3.40;;;8.10;38.90;;;;;;4939453;29;20951;-78
2021/04/27 00:09:37;;;;;;;3.63;2.77;;;8.10;38.70;;;;;;4922525;29;20560;-78
2021/04/27 00:12:03;;;;;;;4.80;3.77;;;8.10;38.60;;;;;;4906591;29;20440;-77
2021/04/27 00:14:30;;;;;;;6.80;3.67;;;8.10;38.60;;;;;;4936840;29;20509;-78
2021/04/27 00:16:55;;;;;;;4.97;2.70;;;8.00;38.60;;;;;;4921828;29;20425;-78
2021/04/27 00:19:21;;;;;;;4.40;3.20;;;8.00;38.60;;;;;;4938934;29;20422;-79
2021/04/27 00:21:47;;;;;;;5.00;2.97;;;8.00;38.60;;;;;;4939514;29;20185;-78
2021/04/27 00:24:12;;;;;;;4.60;2.73;;;8.00;38.50;;;;;;4938635;29;20170;-78
2021/04/27 00:26:38;;;;;;;6.33;2.33;;;8.00;38.50;;;;;;4943931;29;20174;-79
2021/04/27 00:29:04;;;;;;;6.70;3.17;;;8.00;38.60;;;;;;4950711;29;20170;-79
2021/04/27 00:31:34;;;;;;;5.70;3.67;;;8.00;38.50;;;;;;4955894;23;20704;-72
2021/04/27 00:34:00;;;;;;;5.17;2.87;;;8.00;38.50;;;;;;4950464;29;20440;-73
2021/04/27 00:36:27;;;;;;;4.10;2.70;;;8.00;38.60;;;;;;4936040;29;20186;-73
2021/04/27 00:38:53;;;;;;;6.13;3.03;;;7.90;38.60;;;;;;4936278;29;20402;-73
2021/04/27 00:41:18;;;;;;;6.30;3.30;;;8.00;38.50;;;;;;4950921;29;20460;-73
2021/04/27 00:43:44;;;;;;;3.73;2.27;;;8.00;38.30;;;;;;4955262;29;20413;-73
2021/04/27 00:46:10;;;;;;;4.07;2.97;;;8.00;38.10;;;;;;4955444;29;20177;-73
2021/04/27 00:48:36;;;;;;;3.07;2.00;;;8.10;37.90;;;;;;4957043;28;20180;-73
2021/04/27 00:51:02;;;;;;;3.63;2.60;;;8.10;37.70;;;;;;4958084;28;20441;-73
2021/04/27 00:53:29;;;;;;;4.20;2.73;;;8.10;37.70;;;;;;4960345;28;20408;-73
2021/04/27 00:55:55;;;;;;;3.30;2.37;;;8.10;37.60;;;;;;4962300;28;20504;-73
2021/04/27 00:58:22;;;;;;;2.87;2.07;;;8.10;37.60;;;;;;4962287;28;20476;-74
2021/04/27 01:00:48;;;;;;;3.33;1.97;;;8.10;37.50;;;;;;4957850;29;20185;-72
2021/04/27 01:03:15;;;;;;;4.43;2.50;;;8.10;37.50;;;;;;4962549;28;20431;-72
2021/04/27 01:05:41;;;;;;;3.43;2.10;;;8.10;37.40;;;;;;4954186;29;21169;-72
2021/04/27 01:08:19;;;;;;;2.57;1.87;;;8.00;37.30;;;;;;4954928;29;20405;-73
2021/04/27 01:11:01;;;;;;;3.50;2.13;;;8.00;37.50;;;;;;4953233;29;20429;-72
2021/04/27 01:13:34;;;;;;;2.50;1.67;;;8.00;37.40;;;;;;4952775;29;21001;-73
2021/04/27 01:16:01;;;;;;;7.23;2.40;;;8.00;37.40;;;;;;4954672;29;20503;-73
2021/04/27 01:18:27;;;;;;;3.93;2.73;;;8.00;37.40;;;;;;4955611;28;20456;-73
2021/04/27 01:20:54;;;;;;;3.10;1.90;;;8.00;37.50;;;;;;4955564;28;20632;-73
2021/04/27 01:23:41;;;;;;;9.50;4.77;;;7.90;37.40;;;;;;4955887;28;20489;-73
2021/04/27 01:26:19;;;;;;;3.20;2.20;;;7.90;37.40;;;;;;4952626;29;20918;-72
2021/04/27 01:28:52;;;;;;;4.47;2.30;;;7.90;37.50;;;;;;4952890;29;20428;-73
2021/04/27 01:31:18;;;;;;;3.77;2.43;;;7.80;37.50;;;;;;4954362;28;20883;-72
2021/04/27 01:33:46;;;;;;;2.90;2.20;;;7.80;37.50;;;;;;4952978;29;20429;-73
2021/04/27 01:36:13;;;;;;;4.17;2.20;;;7.80;37.60;;;;;;4952220;29;20417;-73
2021/04/27 01:38:48;;;;;;;16.23;2.57;;;7.70;37.60;;;;;;4952755;29;20453;-73
2021/04/27 01:41:14;;;;;;;4.83;2.50;;;7.70;37.60;;;;;;4952271;29;20585;-73
2021/04/27 01:43:42;;;;;;;4.03;2.53;;;7.70;37.70;;;;;;4952662;29;20424;-73
2021/04/27 01:46:10;;;;;;;5.03;2.70;;;7.70;37.90;;;;;;4953323;28;20496;-71
2021/04/27 01:48:37;;;;;;;4.00;2.30;;;7.60;38.00;;;;;;4953735;29;20413;-73
2021/04/27 01:51:05;;;;;;;3.73;2.90;;;7.60;38.00;;;;;;4953076;28;20451;-73
2021/04/27 01:53:51;;;;;;;7.23;2.80;;;7.60;38.10;;;;;;4952256;28;20420;-73
2021/04/27 01:56:20;;;;;;;3.20;2.23;;;7.60;38.20;;;;;;4951927;29;20421;-73
2021/04/27 01:58:47;;;;;;;5.93;2.70;;;7.50;38.20;;;;;;4953690;28;20456;-73
2021/04/27 02:01:13;;;;;;;3.30;2.77;;;7.50;38.30;;;;;;4953354;28;20437;-71
2021/04/27 02:03:41;;;;;;;9.93;2.73;;;7.50;38.30;;;;;;4952272;29;20412;-73
2021/04/27 02:06:26;;;;;;;3.93;2.07;;;7.40;38.40;;;;;;4952184;29;20401;-72
2021/04/27 02:09:01;;;;;;;3.90;2.53;;;7.40;38.50;;;;;;4953587;28;20417;-72
2021/04/27 02:11:32;;;;;;;4.70;2.83;;;7.40;38.60;;;;;;4952072;29;20512;-73
2021/04/27 02:14:00;;;;;;;2.87;2.10;;;7.40;38.80;;;;;;4954135;28;20444;-72
2021/04/27 02:16:32;;;;;;;3.60;2.30;;;7.30;39.50;;;;;;4952798;29;20815;-73
2021/04/27 02:19:01;;;;;;;3.73;2.33;;;7.30;39.00;;;;;;4952567;29;20535;-73
2021/04/27 02:21:28;;;;;;;3.90;2.37;;;7.30;39.20;;;;;;4952058;29;20846;-72
2021/04/27 02:24:13;;;;;;;3.00;2.10;;;7.20;39.30;;;;;;4952848;29;21038;-73
2021/04/27 02:26:44;;;;;;;3.10;2.57;;;7.20;39.40;;;;;;4953183;29;20400;-73
2021/04/27 02:29:20;;;;;;;3.80;2.00;;;7.20;39.60;;;;;;4952579;29;20420;-72
2021/04/27 02:31:47;;;;;;;4.07;2.90;;;7.20;39.60;;;;;;4935682;29;20886;-72
2021/04/27 02:34:18;;;;;;;4.70;2.90;;;7.10;39.70;;;;;;4951915;28;20443;-72
2021/04/27 02:36:44;;;;;;;3.40;2.27;;;7.10;39.70;;;;;;4953322;28;20444;-72
2021/04/27 02:39:16;;;;;;;4.53;2.17;;;7.10;39.80;;;;;;4957305;28;20491;-73
2021/04/27 02:41:45;;;;;;;3.50;2.10;;;7.10;39.80;;;;;;4956503;29;20528;-72
2021/04/27 02:44:31;;;;;;;5.33;2.33;;;7.10;40.40;;;;;;4955602;28;20476;-72
2021/04/27 02:46:57;;;;;;;4.07;2.50;;;7.00;39.80;;;;;;4956998;28;20405;-72
2021/04/27 02:49:23;;;;;;;6.17;3.00;;;7.00;39.90;;;;;;4956798;29;20416;-72
2021/04/27 02:51:57;;;;;;;8.53;2.67;;;7.00;40.10;;;;;;4956989;28;20408;-72
2021/04/27 02:54:24;;;;;;;5.23;2.27;;;7.00;40.10;;;;;;4956865;28;20407;-71
2021/04/27 02:56:51;;;;;;;3.33;2.30;;;6.90;40.10;;;;;;4955003;29;20444;-73
2021/04/27 02:59:22;;;;;;;2.90;2.40;;;6.90;40.20;;;;;;4956781;29;20413;-72
2021/04/27 03:01:49;;;;;;;4.00;2.50;;;6.90;40.20;;;;;;4939869;29;20455;-72
2021/04/27 03:04:16;;;;;;;6.40;2.87;;;6.90;40.40;;;;;;4956455;28;20905;-71
2021/04/27 03:07:08;;;;;;;3.17;2.60;;;6.80;40.40;;;;;;4956516;29;20443;-73
2021/04/27 03:09:37;;;;;;;3.10;2.23;;;6.80;40.50;;;;;;4955104;29;20417;-73
2021/04/27 03:12:04;;;;;;;3.07;2.17;;;6.80;40.60;;;;;;4956491;29;20500;-72
2021/04/27 03:14:37;;;;;;;11.33;2.67;;;6.80;40.60;;;;;;4955270;29;20499;-72
2021/04/27 03:17:04;;;;;;;4.97;1.90;;;6.80;40.60;;;;;;4954721;29;21036;-72
2021/04/27 03:19:32;;;;;;;3.07;2.47;;;6.70;40.60;;;;;;4956551;28;20405;-72
2021/04/27 03:22:12;;;;;;;5.23;2.67;;;6.70;40.60;;;;;;4941465;29;20441;-71
2021/04/27 03:24:38;;;;;;;2.40;1.87;;;6.70;40.60;;;;;;4939678;29;20437;-71
2021/04/27 03:27:04;;;;;;;2.97;2.20;;;6.70;40.60;;;;;;4940330;29;20794;-72
2021/04/27 03:29:49;;;;;;;3.00;1.90;;;6.60;40.70;;;;;;4959517;29;20235;-72
2021/04/27 03:32:15;;;;;;;4.33;2.57;;;6.60;40.80;;;;;;4957529;29;20428;-73
2021/04/27 03:34:42;;;;;;;6.40;2.57;;;6.60;40.90;;;;;;4955457;29;20409;-73
2021/04/27 03:37:10;;;;;;;5.43;2.60;;;6.60;40.90;;;;;;4955689;29;21090;-73
2021/04/27 03:39:36;;;;;;;3.10;2.60;;;6.60;41.00;;;;;;4955847;28;20937;-72
2021/04/27 03:42:06;;;;;;;4.90;2.20;;;6.60;41.10;;;;;;4954665;29;20413;-72
2021/04/27 03:44:32;;;;;;;2.77;2.10;;;6.60;41.20;;;;;;4952170;29;20449;-73
2021/04/27 03:46:59;;;;;;;4.40;2.60;;;6.60;41.40;;;;;;4936222;29;21110;-73
2021/04/27 03:49:25;;;;;;;3.10;2.10;;;6.50;41.40;;;;;;4936994;29;20445;-73
2021/04/27 03:51:51;;;;;;;4.50;1.90;;;6.50;41.40;;;;;;4936548;29;20842;-72
2021/04/27 03:54:18;;;;;;;2.70;2.10;;;6.50;41.60;;;;;;4934676;29;20772;-73
2021/04/27 03:56:44;;;;;;;3.10;2.20;;;6.50;41.60;;;;;;4936695;29;20428;-73
2021/04/27 03:59:12;;;;;;;5.50;2.23;;;6.50;41.70;;;;;;4935895;29;20779;-73
2021/04/27 04:01:38;;;;;;;4.93;2.37;;;6.50;41.60;;;;;;4935902;29;20429;-72
2021/04/27 04:04:06;;;;;;;2.37;2.00;;;6.50;41.60;;;;;;4938134;29;20436;-73
2021/04/27 04:06:33;;;;;;;7.03;1.90;;;6.50;41.60;;;;;;4936261;29;20410;-72
2021/04/27 04:08:59;;;;;;;4.40;2.70;;;6.50;41.60;;;;;;4936401;29;20413;-73
2021/04/27 04:11:30;;;;;;;3.70;2.30;;;6.50;41.60;;;;;;4935062;29;20441;-74
2021/04/27 04:13:59;;;;;;;5.27;2.40;;;6.50;41.60;;;;;;4934962;29;20461;-72
2021/04/27 04:16:27;;;;;;;5.73;2.37;;;6.40;41.50;;;;;;4936215;29;20409;-74
2021/04/27 04:18:53;;;;;;;5.17;1.93;;;6.40;41.60;;;;;;4936014;29;20460;-73
2021/04/27 04:21:20;;;;;;;4.50;2.57;;;6.40;41.60;;;;;;4936319;29;20185;-73
2021/04/27 04:23:57;;;;;;;2.50;1.93;;;6.40;41.70;;;;;;4920506;29;20424;-74
2021/04/27 04:26:27;;;;;;;2.33;1.90;;;6.40;41.70;;;;;;4934646;29;20413;-73
2021/04/27 04:29:12;;;;;;;4.63;4.20;;;6.50;41.70;;;;;;4935676;29;20413;-72
2021/04/27 04:31:43;;;;;;;4.00;1.90;;;6.50;41.80;;;;;;4934158;29;20461;-72
2021/04/27 04:34:27;;;;;;;10.30;2.40;;;6.50;41.80;;;;;;4935619;29;20776;-72
2021/04/27 04:37:11;;;;;;;2.30;1.97;;;6.50;41.60;;;;;;4936115;29;20986;-73
2021/04/27 04:39:55;;;;;;;4.70;2.50;;;6.50;41.60;;;;;;4935720;29;20481;-73
2021/04/27 04:42:53;;;;;;;4.87;2.17;;;6.50;41.40;;;;;;4935583;29;20833;-74
2021/04/27 04:45:37;;;;;;;5.27;2.47;;;6.60;41.50;;;;;;4935869;29;20405;-72
2021/04/27 04:48:21;;;;;;;4.80;2.23;;;6.60;41.40;;;;;;4935667;29;20408;-73
2021/04/27 04:51:10;;;;;;;4.00;2.10;;;6.60;41.40;;;;;;4934249;29;20568;-73
2021/04/27 04:53:58;;;;;;;4.33;2.60;;;6.60;41.40;;;;;;4935693;29;20544;-73
2021/04/27 04:56:24;;;;;;;5.10;2.20;;;6.60;41.30;;;;;;4935356;29;20421;-72
2021/04/27 04:58:50;;;;;;;6.20;2.40;;;6.70;41.30;;;;;;4933693;29;20465;-73
2021/04/27 05:01:16;;;;;;;4.83;2.93;;;6.70;41.20;;;;;;4935637;29;20208;-71
2021/04/27 05:04:05;;;;;;;3.13;2.23;;;6.70;41.10;;;;;;4925404;29;20174;-73
2021/04/27 05:06:41;;;;;;;2.87;2.23;;;6.70;41.10;;;;;;4934921;29;20421;-73
2021/04/27 05:09:32;;;;;;;6.60;1.90;;;6.70;41.00;;;;;;4935392;29;20557;-72
2021/04/27 05:12:08;;;;;;;5.37;2.53;;;6.80;40.90;;;;;;4935343;29;20962;-72
2021/04/27 05:14:52;;;;;;;3.40;2.00;;;6.80;40.80;;;;;;4935289;29;20464;-72
2021/04/27 05:17:18;;;;;;;10.20;2.20;;;6.80;40.70;;;;;;4917545;29;20559;-72
2021/04/27 05:19:44;;;;;;;4.50;2.20;;;6.90;40.70;;;;;;4934290;29;20174;-73
2021/04/27 05:22:10;;;;;;;3.90;2.07;;;6.90;40.50;;;;;;4936532;29;20721;-72
2021/04/27 05:24:38;;;;;;;2.43;1.80;;;6.90;40.40;;;;;;4933846;29;20310;-72
2021/04/27 05:27:18;;;;;;;6.40;2.40;;;7.00;40.10;;;;;;4933939;29;20504;-72
2021/04/27 05:29:43;;;;;;;4.80;2.60;;;7.00;40.10;;;;;;4933271;29;20417;-74
2021/04/27 05:32:09;;;;;;;6.87;2.60;;;7.10;39.90;;;;;;4935467;29;20565;-73
2021/04/27 05:34:36;;;;;;;8.00;2.60;;;7.20;39.90;;;;;;4935325;29;20170;-73
2021/04/27 05:37:02;;;;;;;5.97;2.10;;;7.20;39.70;;;;;;4934828;29;20867;-73
2021/04/27 05:39:31;;;;;;;4.53;2.10;;;7.30;39.50;;;;;;4933676;29;20428;-73
2021/04/27 05:41:57;;;;;;;4.73;2.93;;;7.40;39.20;;;;;;4933792;29;20517;-72
2021/04/27 05:44:23;;;;;;;3.93;2.23;;;7.40;39.10;;;;;;4933562;29;20865;-72
2021/04/27 05:46:48;;;;;;;4.90;2.17;;;7.40;39.60;;;;;;4935412;29;20234;-72
2021/04/27 05:49:14;;;;;;;8.27;2.47;;;7.50;39.00;;;;;;4934962;29;20413;-72
2021/04/27 05:51:40;;;;;;;4.17;2.20;;;7.50;38.90;;;;;;4944962;29;20273;-73
2021/04/27 05:54:06;;;;;;;4.23;2.70;;;7.60;38.90;;;;;;4944670;29;20503;-73
2021/04/27 05:56:36;;;;;;;2.80;1.70;;;7.60;38.80;;;;;;4940369;28;20584;-74
2021/04/27 05:59:03;;;;;;;3.17;1.90;;;7.70;38.20;;;;;;4950535;29;20213;-73
2021/04/27 06:01:29;;;;;;;5.47;2.50;;;7.70;38.00;;;;;;4953100;28;20444;-73
2021/04/27 06:03:55;;;;;;;7.20;1.93;;;7.80;37.80;;;;;;4941787;28;20424;-71
2021/04/27 06:06:21;;;;;;;4.47;2.20;;;7.80;37.80;;;;;;4940660;29;20420;-73
2021/04/27 06:08:47;;;;;;;3.07;2.03;;;7.90;37.80;;;;;;4945374;29;20182;-73
2021/04/27 06:11:13;;;;;;;5.80;2.53;;;8.00;37.40;;;;;;4948158;29;20989;-73
2021/04/27 06:13:40;;;;;;;6.80;2.63;;;8.00;37.30;;;;;;4945067;29;20421;-73
2021/04/27 06:16:06;;;;;;;4.00;2.23;;;8.10;36.90;;;;;;4950362;29;20782;-73
2021/04/27 06:18:32;;;;;;;5.50;2.30;;;8.10;36.90;;;;;;4950760;29;20530;-73
2021/04/27 06:20:58;;;;;;;2.60;1.67;;;8.20;36.60;;;;;;4956246;29;20429;-73
2021/04/27 06:23:24;;;;;;;6.23;2.10;;;8.20;36.70;;;;;;4955730;29;20516;-72
2021/04/27 06:25:50;;;;;;;6.20;2.20;;;8.30;36.40;;;;;;4956934;28;20173;-74
2021/04/27 06:28:16;;;;;;;3.87;2.40;;;8.30;36.10;;;;;;4945735;28;20429;-73
2021/04/27 06:30:43;;;;;;;3.43;2.20;;;8.40;36.10;;;;;;4938579;29;20460;-73
2021/04/27 06:33:09;;;;;;;6.00;1.43;;;8.40;36.10;;;;;;4957866;28;20169;-72
2021/04/27 06:35:36;;;;;;;2.90;1.80;;;8.50;35.70;;;;;;4956183;28;20784;-73
2021/04/27 06:38:02;;;;;;;3.43;2.30;;;8.60;35.60;;;;;;4944129;29;20452;-72
2021/04/27 06:40:28;;;;;;;4.07;1.97;;;8.70;35.10;;;;;;4945268;28;20444;-73
2021/04/27 06:42:54;;;;;;;3.50;1.73;;;8.70;35.20;;;;;;4969872;23;20495;-79
2021/04/27 06:45:20;;;;;;;3.97;1.70;;;8.80;35.00;;;;;;4960475;28;20181;-78
2021/04/27 06:47:46;;;;;;;4.20;1.67;;;9.00;34.40;;;;;;4932019;29;20714;-78
2021/04/27 06:50:13;;;;;;;2.93;1.70;;;9.20;34.40;;;;;;4945585;29;20568;-78
2021/04/27 06:52:39;;;;;;;4.40;2.17;;;10.90;32.30;;;;;;4947476;29;20549;-77
2021/04/27 06:55:08;;;;;;;5.90;2.13;;;12.80;30.20;;;;;;4926175;29;20422;-79
2021/04/27 06:57:35;;;;;;;6.03;1.70;;;14.10;28.40;;;;;;4911969;29;20281;-80
2021/04/27 07:00:00;;;;;;;3.40;1.70;;;14.70;27.30;;;;;;4946422;29;20760;-80
2021/04/27 07:02:29;;;;;;;4.80;2.20;;;15.00;26.20;;;;;;4918542;29;20270;-79
2021/04/27 07:04:55;;;;;;;2.20;1.97;;;15.10;26.00;;;;;;4937466;29;20233;-78
2021/04/27 07:07:24;;;;;;;4.27;1.93;;;15.50;25.80;;;;;;4939967;29;20584;-79
2021/04/27 07:09:50;;;;;;;3.03;1.97;;;16.60;25.40;;;;;;4911078;29;20242;-78
2021/04/27 07:12:15;;;;;;;4.80;2.20;;;17.70;24.20;;;;;;4910529;29;20450;-78
2021/04/27 07:14:41;;;;;;;3.87;2.00;;;18.60;23.50;;;;;;4936992;29;20175;-77
2021/04/27 07:17:08;;;;;;;3.83;2.13;;;18.30;23.00;;;;;;4914474;29;20197;-80
2021/04/27 07:19:34;;;;;;;4.33;2.30;;;18.50;23.00;;;;;;4924386;29;20186;-79
2021/04/27 07:22:16;;;;;;;4.93;2.20;;;19.10;22.30;;;;;;4906911;29;20528;-80
2021/04/27 07:25:10;;;;;;;2.60;1.97;;;19.20;21.80;;;;;;3187653;27;20979;-85
2021/04/27 07:27:40;;;;;;;3.90;2.23;;;19.90;22.10;;;;;;4910793;29;20421;-81
2021/04/27 07:30:07;;;;;;;5.80;2.10;;;21.00;21.80;;;;;;4909848;29;20503;-81
2021/04/27 07:32:33;;;;;;;4.10;2.07;;;21.30;20.40;;;;;;4908112;29;20434;-83
2021/04/27 07:34:59;;;;;;;2.80;1.73;;;21.80;20.40;;;;;;4906482;29;20490;-84
2021/04/27 07:37:25;;;;;;;3.40;2.20;;;22.10;20.30;;;;;;4909965;29;20204;-83
2021/04/27 07:39:54;;;;;;;4.20;2.47;;;22.00;19.70;;;;;;4942768;23;20529;-79
2021/04/27 07:42:19;;;;;;;3.73;2.20;;;21.40;20.50;;;;;;4924747;29;20419;-79
2021/04/27 07:44:45;;;;;;;5.33;2.00;;;21.50;20.10;;;;;;4911657;29;20181;-79
2021/04/27 07:47:11;;;;;;;3.70;2.40;;;21.90;20.40;;;;;;4891447;29;20172;-78
2021/04/27 07:49:39;;;;;;;2.60;2.03;;;22.30;19.70;;;;;;4905455;29;20175;-78
2021/04/27 07:52:05;;;;;;;3.07;2.40;;;22.70;19.40;;;;;;4909946;29;20171;-78
2021/04/27 07:54:31;;;;;;;2.93;1.90;;;22.90;19.10;;;;;;4908353;29;20483;-79
2021/04/27 07:56:57;;;;;;;6.57;2.30;;;23.60;18.90;;;;;;4874736;29;20681;-79
2021/04/27 07:59:23;;;;;;;3.77;2.30;;;23.80;18.70;;;;;;4904264;29;20431;-80
2021/04/27 08:01:57;;;;;;;4.13;2.17;;;23.90;18.60;;;;;;4906148;29;20724;-79
2021/04/27 08:04:26;;;;;;;2.93;2.63;;;24.40;18.20;;;;;;4871500;29;20296;-78
2021/04/27 08:06:55;;;;;;;3.40;2.13;;;24.30;18.10;;;;;;4904082;29;20507;-79
2021/04/27 08:09:27;;;;;;;2.83;2.13;;;24.40;18.10;;;;;;4893463;29;20404;-81
2021/04/27 08:11:54;;;;;;;2.43;2.13;;;24.60;18.10;;;;;;4896699;29;20424;-78
2021/04/27 08:14:21;;;;;;;10.07;2.40;;;24.20;18.00;;;;;;4895680;29;20417;-80
2021/04/27 08:16:53;;;;;;;3.73;2.50;;;24.20;17.90;;;;;;4896557;29;20401;-80
2021/04/27 08:19:21;;;;;;;2.97;2.33;;;24.70;17.60;;;;;;4891870;29;20410;-79
2021/04/27 08:21:47;;;;;;;2.83;2.53;;;24.60;18.00;;;;;;4910278;29;20463;-77
2021/04/27 08:24:13;;;;;;;6.70;2.13;;;25.10;17.70;;;;;;4901005;29;20206;-76
2021/04/27 08:26:39;;;;;;;4.77;2.17;;;25.40;17.10;;;;;;4893140;29;20209;-79
2021/04/27 08:29:14;;;;;;;7.03;2.13;;;25.20;17.10;;;;;;4875139;29;20520;-78
2021/04/27 08:31:41;;;;;;;2.90;2.40;;;25.30;17.20;;;;;;4878572;29;20183;-78
2021/04/27 08:34:11;;;;;;;10.33;2.83;;;25.70;17.00;;;;;;4891098;29;20440;-78
2021/04/27 08:36:40;;;;;;;2.90;2.20;;;26.00;16.80;;;;;;4899240;29;20467;-79
2021/04/27 08:39:06;;;;;;;5.63;2.20;;;25.70;16.80;;;;;;4884951;29;20423;-79
2021/04/27 08:41:32;;;;;;;2.60;2.40;;;25.10;16.90;;;;;;4886705;29;20562;-78
2021/04/27 08:44:05;;;;;;;7.10;2.70;;;25.20;16.80;;;;;;4902820;29;20254;-78
2021/04/27 08:46:32;;;;;;;2.63;2.07;;;25.20;16.50;;;;;;4920424;29;20506;-78
2021/04/27 08:48:58;;;;;;;3.20;2.00;;;25.20;17.20;;;;;;4904202;29;20487;-79
2021/04/27 08:51:32;;;;;;;4.27;2.57;;;25.50;17.00;;;;;;4905963;29;20426;-79
2021/04/27 08:54:06;;;;;;;4.17;2.53;;;24.60;17.00;;;;;;4912288;29;20262;-80
2021/04/27 09:07:14;;;;;;;3.63;2.40;;;24.40;17.40;;;;;;5114924;27;20516;-78
2021/04/27 09:09:46;;;;;;;5.00;2.60;;;24.60;17.00;;;;;;5113792;28;20452;-77
2021/04/27 09:12:12;;;;;;;4.87;2.80;;;24.90;16.90;;;;;;5104170;28;20407;-77
2021/04/27 09:14:48;;;;;;;3.53;2.30;;;25.20;16.90;;;;;;5091452;28;20449;-78
2021/04/27 09:17:14;;;;;;;12.13;2.20;;;25.50;16.60;;;;;;5082279;28;20469;-78
2021/04/27 09:19:51;;;;;;;2.87;2.50;;;25.50;16.60;;;;;;5096079;28;20427;-78
2021/04/27 09:22:33;;;;;;;4.20;2.87;;;25.70;16.20;;;;;;5094227;28;20433;-78
2021/04/27 09:25:06;;;;;;;4.40;2.50;;;25.80;16.10;;;;;;5092468;28;21446;-77
2021/04/27 09:27:34;;;;;;;3.43;2.50;;;25.40;16.30;;;;;;5095624;28;20449;-78
2021/04/27 09:30:30;;;;;;;3.30;2.00;;;24.90;16.50;;;;;;5080806;28;20425;-79
2021/04/27 09:33:04;;;;;;;6.67;2.40;;;24.70;16.80;;;;;;5101485;28;20426;-77
2021/04/27 09:35:50;;;;;;;3.33;2.53;;;24.60;16.90;;;;;;5101783;28;20442;-77
2021/04/27 09:38:33;;;;;;;3.60;2.70;;;24.30;17.00;;;;;;5081129;28;20407;-77
2021/04/27 09:41:03;;;;;;;3.03;2.27;;;24.40;16.50;;;;;;5094603;28;20430;-77
2021/04/27 09:43:34;;;;;;;4.37;2.57;;;23.80;16.60;;;;;;5094832;28;20437;-77
2021/04/27 09:46:05;;;;;;;3.33;2.80;;;23.50;17.00;;;;;;5089643;28;20966;-77
2021/04/27 09:48:39;;;;;;;3.47;2.73;;;23.60;17.20;;;;;;5091003;28;20412;-77
2021/04/27 09:51:14;;;;;;;3.73;2.90;;;23.90;16.90;;;;;;5091085;28;20393;-77
2021/04/27 09:53:58;;;;;;;3.60;2.23;;;24.40;16.50;;;;;;5067286;28;20469;-76
2021/04/27 09:56:44;;;;;;;4.20;2.37;;;24.00;16.80;;;;;;5090638;28;20553;-77
2021/04/27 09:59:28;;;;;;;4.13;2.57;;;24.30;16.70;;;;;;5090910;28;20905;-78
2021/04/27 10:01:57;;;;;;;4.43;2.57;;;24.20;16.60;;;;;;5107025;28;20407;-78
2021/04/27 10:04:31;;;;;;;3.03;2.40;;;24.10;16.50;;;;;;5090945;28;20445;-78
2021/04/27 10:07:01;;;;;;;2.80;2.33;;;23.70;16.80;;;;;;5053410;28;20459;-78
2021/04/27 10:09:28;;;;;;;3.13;2.63;;;23.30;16.90;;;;;;5078655;28;20419;-77
2021/04/27 10:11:55;;;;;;;3.93;2.73;;;23.30;17.10;;;;;;5062424;28;20425;-80
2021/04/27 10:14:22;;;;;;;2.50;2.30;;;23.30;17.10;;;;;;5082057;28;20948;-80
2021/04/27 10:16:50;;;;;;;5.87;2.63;;;23.40;17.20;;;;;;5083605;28;20514;-84
2021/04/27 10:19:21;;;;;;;4.37;3.13;;;23.70;17.60;;;;;;5069325;28;20450;-80
2021/04/27 10:25:00;;;;;;;2.37;2.17;;;22.90;17.20;;;;;;5416551;22;20472;-81
2021/04/27 10:27:32;;;;;;;4.40;2.93;;;23.00;17.10;;;;;;4996189;28;20417;-83
2021/04/27 10:30:19;;;;;;;4.30;3.00;;;23.30;17.40;;;;;;4998363;28;20414;-81
2021/04/27 10:33:11;;;;;;;4.33;2.60;;;23.50;17.30;;;;;;5611256;22;20486;-81
2021/04/27 10:36:35;;;;;;;5.07;2.70;;;23.80;17.70;;;;;;4977809;28;20627;-82
2021/04/27 10:39:11;;;;;;;3.73;2.40;;;23.90;16.80;;;;;;4977727;28;20439;-81
2021/04/27 10:42:29;;;;;;;3.50;2.67;;;23.30;17.20;;;;;;4994813;28;20382;-82
2021/04/27 10:45:39;;;;;;;5.00;2.63;;;22.40;17.30;;;;;;4988025;28;20440;-82
2021/04/27 10:48:49;;;;;;;2.80;2.33;;;21.00;18.00;;;;;;4919762;29;20410;-83
2021/04/27 10:54:49;;;;;;;4.90;2.17;;;19.60;19.10;;;;;;5028835;23;20835;-82
2021/04/27 10:57:17;;;;;;;5.10;2.83;;;19.20;19.20;;;;;;4987197;28;20423;-83
2021/04/27 11:00:31;;;;;;;8.20;3.63;;;18.80;19.90;;;;;;4961585;28;20185;-83
2021/04/27 11:03:25;;;;;;;5.60;3.37;;;18.90;19.60;;;;;;4983147;28;20523;-82
2021/04/27 11:06:07;;;;;;;4.23;2.53;;;18.80;19.60;;;;;;4969154;28;20406;-80
2021/04/27 11:08:49;;;;;;;4.40;2.60;;;18.80;19.80;;;;;;4970702;28;20477;-81
2021/04/27 11:11:31;;;;;;;4.50;2.13;;;18.60;19.80;;;;;;4995575;28;20420;-80
2021/04/27 11:14:29;;;;;;;11.53;3.57;;;18.40;20.10;;;;;;4988066;28;20539;-80
2021/04/27 11:16:56;;;;;;;4.10;2.70;;;18.30;19.70;;;;;;4928483;29;20437;-82
2021/04/27 11:19:26;;;;;;;4.33;3.23;;;18.30;19.60;;;;;;4972164;28;20403;-82
2021/04/27 11:21:55;;;;;;;5.43;2.83;;;18.30;20.00;;;;;;4969772;28;20432;-85
2021/04/27 11:24:40;;;;;;;6.17;3.17;;;18.30;20.00;;;;;;4982046;28;20427;-83
2021/04/27 11:27:19;;;;;;;3.97;2.80;;;18.20;19.70;;;;;;5001602;28;20435;-83
2021/04/27 11:30:17;;;;;;;3.60;3.07;;;18.00;19.80;;;;;;5003074;28;20395;-83
2021/04/27 11:32:44;;;;;;;5.40;3.17;;;17.80;20.30;;;;;;4939641;28;20411;-83
2021/04/27 11:35:19;;;;;;;4.13;2.80;;;17.40;20.30;;;;;;4977552;28;20442;-86
2021/04/27 11:37:58;;;;;;;9.63;2.70;;;17.20;20.50;;;;;;4989160;28;20422;-81
2021/04/27 11:40:28;;;;;;;5.60;3.80;;;17.30;20.60;;;;;;4964803;28;21066;-84
2021/04/27 11:42:59;;;;;;;3.83;3.17;;;17.30;20.60;;;;;;4982723;28;20453;-85
2021/04/27 11:45:29;;;;;;;4.20;3.00;;;17.50;20.90;;;;;;4964870;28;20431;-83
2021/04/27 11:47:56;;;;;;;3.60;2.30;;;17.50;20.60;;;;;;4979867;28;20440;-83
2021/04/27 11:50:32;;;;;;;7.67;2.97;;;17.70;20.80;;;;;;4987295;28;20418;-82
2021/04/27 11:53:12;;;;;;;4.20;2.77;;;17.80;20.40;;;;;;4982279;28;21126;-83
2021/04/27 11:55:53;;;;;;;4.77;3.20;;;17.80;20.50;;;;;;4949626;28;20601;-83
2021/04/27 11:58:32;;;;;;;3.60;2.67;;;17.60;20.30;;;;;;4965584;28;20421;-81
2021/04/27 12:01:07;;;;;;;4.03;2.73;;;17.60;20.60;;;;;;4986246;28;20424;-83
2021/04/27 12:03:48;;;;;;;2.37;2.07;;;17.50;20.70;;;;;;4979769;28;20486;-84
2021/04/27 12:06:16;;;;;;;3.60;3.07;;;17.40;20.70;;;;;;4979709;28;20818;-81
2021/04/27 12:09:00;;;;;;;5.20;2.97;;;17.20;20.40;;;;;;4959965;28;20425;-81
2021/04/27 12:11:34;;;;;;;4.30;2.20;;;17.20;20.40;;;;;;4990080;28;20411;-84
2021/04/27 12:14:01;;;;;;;4.80;2.73;;;17.20;20.90;;;;;;5003537;28;20578;-81
2021/04/27 12:16:37;;;;;;;3.70;2.33;;;17.40;20.80;;;;;;4974909;28;20455;-83
2021/04/27 12:19:07;;;;;;;9.73;7.77;;;17.60;20.80;;;;;;4982868;28;20497;-85
2021/04/27 12:21:51;;;;;;;5.17;2.80;;;17.80;20.70;;;;;;4989212;28;20423;-81
2021/04/27 12:24:30;;;;;;;7.10;3.60;;;18.00;20.40;;;;;;4975208;28;20454;-83
2021/04/27 12:27:00;;;;;;;4.13;2.97;;;18.10;20.30;;;;;;4977448;28;20429;-81
2021/04/27 12:29:33;;;;;;;5.33;3.00;;;18.00;20.10;;;;;;4996090;28;20498;-83
2021/04/27 12:32:11;;;;;;;8.33;3.03;;;18.00;20.10;;;;;;4986021;28;20454;-82
2021/04/27 12:34:55;;;;;;;3.97;3.00;;;17.90;20.10;;;;;;4967830;28;20490;-83
2021/04/27 12:37:22;;;;;;;4.33;2.90;;;18.00;20.10;;;;;;4989618;28;20425;-79
2021/04/27 12:39:48;;;;;;;3.50;2.83;;;17.70;19.70;;;;;;4989647;28;20490;-82
2021/04/27 12:42:27;;;;;;;4.77;2.70;;;17.40;20.50;;;;;;4991231;28;20426;-82
2021/04/27 12:45:04;;;;;;;4.30;3.30;;;17.50;20.40;;;;;;4982142;28;20938;-80
2021/04/27 12:47:37;;;;;;;5.63;3.27;;;17.60;20.50;;;;;;4950740;28;20433;-79
2021/04/27 12:50:11;;;;;;;3.57;3.10;;;17.80;20.50;;;;;;4985699;28;20469;-80
2021/04/27 12:52:43;;;;;;;6.00;3.80;;;18.00;20.00;;;;;;4984569;28;20430;-82
2021/04/27 12:55:11;;;;;;;4.90;2.70;;;18.10;20.00;;;;;;4994474;28;20742;-82
2021/04/27 12:57:38;;;;;;;4.77;2.57;;;18.10;20.20;;;;;;4988272;28;20861;-80
2021/04/27 13:00:13;;;;;;;8.93;5.30;;;18.10;19.90;;;;;;4966067;28;20419;-82
2021/04/27 13:02:39;;;;;;;14.70;9.87;;;18.10;20.00;;;;;;4964068;28;20422;-82
2021/04/27 13:05:09;;;;;;;5.07;3.00;;;18.10;20.40;;;;;;4967526;28;20438;-80
2021/04/27 13:07:39;;;;;;;7.97;3.20;;;18.30;20.20;;;;;;4999236;28;20184;-81
2021/04/27 13:10:33;;;;;;;3.40;2.53;;;18.20;19.80;;;;;;4964813;28;20434;-80
2021/04/27 13:13:00;;;;;;;2.90;2.60;;;18.20;19.90;;;;;;4964511;28;20436;-80
2021/04/27 13:15:26;;;;;;;3.23;2.70;;;18.20;19.90;;;;;;4979942;28;20530;-79
2021/04/27 13:18:00;;;;;;;3.07;2.50;;;18.30;19.50;;;;;;4982461;28;20411;-81
2021/04/27 13:20:44;;;;;;;5.60;2.53;;;18.20;19.50;;;;;;4957562;28;20431;-81
2021/04/27 13:23:16;;;;;;;5.63;3.23;;;18.10;19.50;;;;;;4961791;28;20428;-81
2021/04/27 13:25:44;;;;;;;5.37;2.80;;;18.00;20.00;;;;;;4979592;28;20439;-80
2021/04/27 13:28:17;;;;;;;11.20;3.00;;;17.80;19.90;;;;;;4981917;28;20439;-82
2021/04/27 13:30:56;;;;;;;4.20;3.00;;;17.70;19.80;;;;;;4978934;28;20443;-82
2021/04/27 13:33:28;;;;;;;3.83;3.03;;;17.70;20.00;;;;;;4980493;28;20454;-81
2021/04/27 13:35:55;;;;;;;4.47;3.10;;;17.80;20.10;;;;;;4951974;28;20459;-80